sensor_id;sensor_type;location;lat;lon;timestamp;pressure;altitude;pressure_sealevel;temperature;humidity
6425;BME280;12193;42.642;23.384;2024-02-16T00:00:38;94964.16;;;3.01;100.00
6425;BME280;12193;42.642;23.384;2024-02-16T00:03:10;94963.81;;;2.87;100.00
6425;BME280;12193;42.642;23.384;2024-02-16T00:05:39;94966.06;;;2.99;100.00
6425;BME280;12193;42.642;23.384;2024-02-16T00:08:08;94978.09;;;3.16;100.00
6425;BME280;12193;42.642;23.384;2024-02-16T00:10:39;94970.63;;;3.05;100.00
6425;BME280;12193;42.642;23.384;2024-02-16T00:13:09;94967.06;;;3.33;100.00
6425;BME280;12193;42.642;23.384;2024-02-16T00:15:41;94971.53;;;3.31;100.00
6425;BME280;12193;42.642;23.384;2024-02-16T00:18:10;94968.28;;;3.11;100.00
6425;BME280;12193;42.642;23.384;2024-02-16T00:20:39;94969.38;;;3.09;100.00
6425;BME280;12193;42.642;23.384;2024-02-16T00:23:08;94974.09;;;3.13;100.00
6425;BME280;12193;42.642;23.384;2024-02-16T00:25:37;94974.97;;;3.22;100.00
6425;BME280;12193;42.642;23.384;2024-02-16T00:28:07;94975.03;;;3.12;100.00
6425;BME280;12193;42.642;23.384;2024-02-16T00:30:39;94971.78;;;2.93;100.00
6425;BME280;12193;42.642;23.384;2024-02-16T00:33:09;94972.25;;;2.79;100.00
6425;BME280;12193;42.642;23.384;2024-02-16T00:35:38;94976.69;;;2.77;100.00
6425;BME280;12193;42.642;23.384;2024-02-16T00:38:07;94974.28;;;2.76;100.00
6425;BME280;12193;42.642;23.384;2024-02-16T00:40:37;94976.34;;;2.72;100.00
6425;BME280;12193;42.642;23.384;2024-02-16T00:43:09;94966.91;;;2.63;100.00
6425;BME280;12193;42.642;23.384;2024-02-16T00:45:41;94978.13;;;2.62;100.00
6425;BME280;12193;42.642;23.384;2024-02-16T00:48:11;94975.13;;;2.67;100.00
6425;BME280;12193;42.642;23.384;2024-02-16T00:50:40;94979.47;;;2.93;100.00
6425;BME280;12193;42.642;23.384;2024-02-16T00:53:10;94977.03;;;2.92;100.00
6425;BME280;12193;42.642;23.384;2024-02-16T00:55:40;94977.81;;;2.75;100.00
6425;BME280;12193;42.642;23.384;2024-02-16T00:58:12;94981.13;;;2.58;100.00
6425;BME280;12193;42.642;23.384;2024-02-16T01:00:43;94974.25;;;2.49;100.00
6425;BME280;12193;42.642;23.384;2024-02-16T01:03:13;94979.13;;;2.52;100.00
6425;BME280;12193;42.642;23.384;2024-02-16T01:05:42;94985.75;;;2.54;100.00
6425;BME280;12193;42.642;23.384;2024-02-16T03:58:29;94950.47;;;2.29;100.00
6425;BME280;12193;42.642;23.384;2024-02-16T04:00:59;94957.13;;;2.13;100.00
6425;BME280;12193;42.642;23.384;2024-02-16T04:03:28;94954.44;;;2.05;100.00
6425;BME280;12193;42.642;23.384;2024-02-16T04:05:57;94958.34;;;2.00;100.00
6425;BME280;12193;42.642;23.384;2024-02-16T04:08:27;94966.03;;;2.00;100.00
6425;BME280;12193;42.642;23.384;2024-02-16T04:10:57;94960.50;;;2.04;100.00
6425;BME280;12193;42.642;23.384;2024-02-16T04:13:28;94962.78;;;2.53;100.00
6425;BME280;12193;42.642;23.384;2024-02-16T04:15:59;94969.75;;;2.60;100.00
6425;BME280;12193;42.642;23.384;2024-02-16T04:18:28;94956.28;;;2.22;100.00
6425;BME280;12193;42.642;23.384;2024-02-16T04:20:57;94960.06;;;2.18;100.00
6425;BME280;12193;42.642;23.384;2024-02-16T04:23:26;94961.94;;;2.25;100.00
6425;BME280;12193;42.642;23.384;2024-02-16T04:25:56;94961.75;;;1.91;100.00
6425;BME280;12193;42.642;23.384;2024-02-16T04:28:25;94955.97;;;1.89;100.00
6425;BME280;12193;42.642;23.384;2024-02-16T04:30:57;94961.19;;;1.97;100.00
6425;BME280;12193;42.642;23.384;2024-02-16T04:33:26;94960.69;;;1.74;100.00
6425;BME280;12193;42.642;23.384;2024-02-16T04:35:55;94946.09;;;1.84;100.00
6425;BME280;12193;42.642;23.384;2024-02-16T04:38:25;94965.41;;;1.79;100.00
6425;BME280;12193;42.642;23.384;2024-02-16T04:40:54;94961.38;;;1.76;100.00
6425;BME280;12193;42.642;23.384;2024-02-16T04:43:23;94959.75;;;1.85;100.00
6425;BME280;12193;42.642;23.384;2024-02-16T04:45:52;94970.94;;;1.74;100.00
6425;BME280;12193;42.642;23.384;2024-02-16T04:48:25;94962.03;;;1.78;100.00
6425;BME280;12193;42.642;23.384;2024-02-16T04:50:55;94965.00;;;1.83;100.00
6425;BME280;12193;42.642;23.384;2024-02-16T04:53:24;94973.34;;;1.85;100.00
6425;BME280;12193;42.642;23.384;2024-02-16T04:55:53;94967.59;;;1.83;100.00
6425;BME280;12193;42.642;23.384;2024-02-16T04:58:22;94970.25;;;1.91;100.00
6425;BME280;12193;42.642;23.384;2024-02-16T05:00:51;94969.81;;;1.96;100.00
6425;BME280;12193;42.642;23.384;2024-02-16T05:03:20;94969.56;;;1.99;100.00
6425;BME280;12193;42.642;23.384;2024-02-16T05:05:52;94971.06;;;1.92;100.00
6425;BME280;12193;42.642;23.384;2024-02-16T05:08:22;94979.81;;;1.89;100.00
6425;BME280;12193;42.642;23.384;2024-02-16T05:10:51;94980.00;;;1.50;100.00
6425;BME280;12193;42.642;23.384;2024-02-16T05:13:20;94989.31;;;1.41;100.00
6425;BME280;12193;42.642;23.384;2024-02-16T05:15:50;94983.50;;;1.39;100.00
6425;BME280;12193;42.642;23.384;2024-02-16T05:18:21;94997.78;;;1.42;100.00
6425;BME280;12193;42.642;23.384;2024-02-16T05:20:54;94988.03;;;1.07;100.00
6425;BME280;12193;42.642;23.384;2024-02-16T05:23:24;94997.28;;;0.90;100.00
6425;BME280;12193;42.642;23.384;2024-02-16T05:25:53;94996.97;;;0.74;100.00
6425;BME280;12193;42.642;23.384;2024-02-16T05:28:22;95000.66;;;0.81;100.00
6425;BME280;12193;42.642;23.384;2024-02-16T05:30:52;94998.78;;;0.53;100.00
6425;BME280;12193;42.642;23.384;2024-02-16T05:33:21;95004.25;;;0.39;100.00
6425;BME280;12193;42.642;23.384;2024-02-16T05:35:53;95003.13;;;0.32;100.00
6425;BME280;12193;42.642;23.384;2024-02-16T05:38:25;95005.31;;;0.36;100.00
6425;BME280;12193;42.642;23.384;2024-02-16T05:41:06;95006.03;;;0.78;100.00
6425;BME280;12193;42.642;23.384;2024-02-16T05:43:36;95003.34;;;0.89;100.00
6425;BME280;12193;42.642;23.384;2024-02-16T05:46:06;95012.69;;;1.08;100.00
6425;BME280;12193;42.642;23.384;2024-02-16T05:48:35;95003.03;;;1.21;100.00
6425;BME280;12193;42.642;23.384;2024-02-16T05:51:08;95006.81;;;1.46;100.00
6425;BME280;12193;42.642;23.384;2024-02-16T05:53:39;95008.69;;;1.44;100.00
6425;BME280;12193;42.642;23.384;2024-02-16T05:56:09;95011.25;;;1.82;100.00
6425;BME280;12193;42.642;23.384;2024-02-16T05:58:38;95009.53;;;1.82;100.00
6425;BME280;12193;42.642;23.384;2024-02-16T06:01:08;95010.59;;;1.80;100.00
6425;BME280;12193;42.642;23.384;2024-02-16T06:03:40;95013.13;;;1.99;100.00
6425;BME280;12193;42.642;23.384;2024-02-16T06:06:13;95018.63;;;2.13;100.00
6425;BME280;12193;42.642;23.384;2024-02-16T06:08:42;95020.69;;;2.09;100.00
6425;BME280;12193;42.642;23.384;2024-02-16T06:11:11;95020.00;;;2.07;100.00
6425;BME280;12193;42.642;23.384;2024-02-16T06:13:41;95021.59;;;2.18;100.00
6425;BME280;12193;42.642;23.384;2024-02-16T06:16:10;95013.59;;;2.40;100.00
6425;BME280;12193;42.642;23.384;2024-02-16T06:18:39;95025.44;;;2.50;100.00
6425;BME280;12193;42.642;23.384;2024-02-16T06:21:08;95028.78;;;2.60;100.00
6425;BME280;12193;42.642;23.384;2024-02-16T06:23:42;95036.41;;;2.79;100.00
6425;BME280;12193;42.642;23.384;2024-02-16T06:26:11;95035.75;;;2.68;100.00
6425;BME280;12193;42.642;23.384;2024-02-16T06:28:40;95037.31;;;3.14;100.00
6425;BME280;12193;42.642;23.384;2024-02-16T06:31:09;95044.25;;;4.36;100.00
6425;BME280;12193;42.642;23.384;2024-02-16T06:33:40;95042.75;;;6.08;92.32
6425;BME280;12193;42.642;23.384;2024-02-16T06:36:09;95043.00;;;6.77;83.90
6425;BME280;12193;42.642;23.384;2024-02-16T06:38:41;95035.38;;;7.37;80.95
6425;BME280;12193;42.642;23.384;2024-02-16T06:41:12;95045.72;;;8.28;73.62
6425;BME280;12193;42.642;23.384;2024-02-16T06:43:41;95046.63;;;8.72;69.27
6425;BME280;12193;42.642;23.384;2024-02-16T06:46:11;95042.59;;;9.21;65.96
6425;BME280;12193;42.642;23.384;2024-02-16T06:48:40;95036.91;;;8.74;67.78
6425;BME280;12193;42.642;23.384;2024-02-16T06:51:09;95038.00;;;9.09;65.16
6425;BME280;12193;42.642;23.384;2024-02-16T06:53:40;95047.81;;;8.70;65.76
6425;BME280;12193;42.642;23.384;2024-02-16T06:56:10;95038.91;;;8.27;69.37
6425;BME280;12193;42.642;23.384;2024-02-16T06:58:39;95030.03;;;8.81;66.86
6425;BME280;12193;42.642;23.384;2024-02-16T07:01:08;95036.94;;;8.52;67.16
6425;BME280;12193;42.642;23.384;2024-02-16T07:03:37;95040.09;;;8.62;67.41
6425;BME280;12193;42.642;23.384;2024-02-16T07:06:07;95045.88;;;8.49;67.33
6425;BME280;12193;42.642;23.384;2024-02-16T07:08:36;95040.25;;;9.12;66.40
6425;BME280;12193;42.642;23.384;2024-02-16T07:11:08;95041.38;;;9.67;64.75
6425;BME280;12193;42.642;23.384;2024-02-16T07:13:39;95042.59;;;9.35;63.47
6425;BME280;12193;42.642;23.384;2024-02-16T07:16:09;95035.28;;;10.31;59.57
6425;BME280;12193;42.642;23.384;2024-02-16T07:18:38;95040.88;;;9.92;60.92
6425;BME280;12193;42.642;23.384;2024-02-16T07:21:08;95027.16;;;9.63;62.83
6425;BME280;12193;42.642;23.384;2024-02-16T07:23:38;95038.72;;;9.31;63.92
6425;BME280;12193;42.642;23.384;2024-02-16T07:26:10;95030.75;;;9.97;61.99
6425;BME280;12193;42.642;23.384;2024-02-16T07:28:40;95028.75;;;10.62;58.98
6425;BME280;12193;42.642;23.384;2024-02-16T07:31:09;95032.78;;;9.66;61.34
6425;BME280;12193;42.642;23.384;2024-02-16T07:33:40;95033.19;;;9.84;61.02
6425;BME280;12193;42.642;23.384;2024-02-16T07:36:10;95027.28;;;9.76;60.43
6425;BME280;12193;42.642;23.384;2024-02-16T07:38:40;95040.88;;;10.07;59.12
6425;BME280;12193;42.642;23.384;2024-02-16T07:41:12;95043.88;;;10.52;56.60
6425;BME280;12193;42.642;23.384;2024-02-16T07:43:41;95034.59;;;10.01;58.21
6425;BME280;12193;42.642;23.384;2024-02-16T07:46:10;95038.88;;;10.50;56.51
6425;BME280;12193;42.642;23.384;2024-02-16T07:48:40;95032.25;;;10.48;55.77
6425;BME280;12193;42.642;23.384;2024-02-16T07:51:09;95032.88;;;10.29;55.78
6425;BME280;12193;42.642;23.384;2024-02-16T07:53:38;95038.28;;;10.76;55.13
6425;BME280;12193;42.642;23.384;2024-02-16T07:56:13;95043.03;;;11.21;52.88
6425;BME280;12193;42.642;23.384;2024-02-16T07:58:42;95044.09;;;11.39;51.45
6425;BME280;12193;42.642;23.384;2024-02-16T08:01:12;95041.97;;;10.88;52.66
6425;BME280;12193;42.642;23.384;2024-02-16T08:03:42;95042.59;;;11.51;51.15
6425;BME280;12193;42.642;23.384;2024-02-16T08:06:12;95042.72;;;11.43;51.93
6425;BME280;12193;42.642;23.384;2024-02-16T08:08:42;95037.47;;;11.64;51.43
6425;BME280;12193;42.642;23.384;2024-02-16T08:11:14;95045.94;;;11.85;50.35
6425;BME280;12193;42.642;23.384;2024-02-16T08:13:43;95041.91;;;12.36;49.70
6425;BME280;12193;42.642;23.384;2024-02-16T08:16:13;95042.91;;;12.48;49.92
6425;BME280;12193;42.642;23.384;2024-02-16T08:18:43;95043.84;;;12.15;50.09
6425;BME280;12193;42.642;23.384;2024-02-16T08:21:13;95053.25;;;12.03;49.33
6425;BME280;12193;42.642;23.384;2024-02-16T08:23:42;95049.34;;;12.58;49.23
6425;BME280;12193;42.642;23.384;2024-02-16T08:26:13;95045.13;;;13.29;46.58
6425;BME280;12193;42.642;23.384;2024-02-16T08:28:43;95049.38;;;12.71;47.84
6425;BME280;12193;42.642;23.384;2024-02-16T08:31:15;95040.47;;;13.50;46.41
6425;BME280;12193;42.642;23.384;2024-02-16T08:33:45;95046.50;;;13.44;45.94
6425;BME280;12193;42.642;23.384;2024-02-16T08:36:14;95054.16;;;12.68;47.70
6425;BME280;12193;42.642;23.384;2024-02-16T08:38:43;95040.69;;;11.66;51.77
6425;BME280;12193;42.642;23.384;2024-02-16T08:41:15;95047.25;;;10.73;55.90
6425;BME280;12193;42.642;23.384;2024-02-16T08:43:44;95038.13;;;11.45;53.64
6425;BME280;12193;42.642;23.384;2024-02-16T08:46:13;95043.13;;;12.66;50.04
6425;BME280;12193;42.642;23.384;2024-02-16T08:48:44;95035.47;;;12.32;51.24
6425;BME280;12193;42.642;23.384;2024-02-16T08:51:13;95039.88;;;12.32;50.57
6425;BME280;12193;42.642;23.384;2024-02-16T08:53:42;95052.19;;;13.02;48.88
6425;BME280;12193;42.642;23.384;2024-02-16T08:56:14;95048.16;;;13.13;48.07
6425;BME280;12193;42.642;23.384;2024-02-16T08:58:43;95039.84;;;12.25;50.27
6425;BME280;12193;42.642;23.384;2024-02-16T09:01:12;95045.59;;;13.00;48.78
6425;BME280;12193;42.642;23.384;2024-02-16T09:03:43;95043.94;;;13.12;48.13
6425;BME280;12193;42.642;23.384;2024-02-16T09:06:13;95040.31;;;12.87;48.64
6425;BME280;12193;42.642;23.384;2024-02-16T09:08:42;95039.13;;;13.09;47.49
6425;BME280;12193;42.642;23.384;2024-02-16T09:11:14;95042.50;;;13.98;45.66
6425;BME280;12193;42.642;23.384;2024-02-16T09:13:43;95041.97;;;14.34;45.95
6425;BME280;12193;42.642;23.384;2024-02-16T09:16:13;95050.28;;;14.11;44.12
6425;BME280;12193;42.642;23.384;2024-02-16T09:18:42;95054.22;;;14.33;44.21
6425;BME280;12193;42.642;23.384;2024-02-16T09:21:11;95049.09;;;14.07;44.93
6425;BME280;12193;42.642;23.384;2024-02-16T09:23:41;95045.47;;;14.08;44.20
6425;BME280;12193;42.642;23.384;2024-02-16T09:26:10;95054.03;;;14.35;43.35
6425;BME280;12193;42.642;23.384;2024-02-16T09:28:42;95048.63;;;14.60;42.56
6425;BME280;12193;42.642;23.384;2024-02-16T09:31:14;95049.13;;;14.14;42.88
6425;BME280;12193;42.642;23.384;2024-02-16T09:33:44;95037.72;;;13.19;43.96
6425;BME280;12193;42.642;23.384;2024-02-16T09:36:13;95051.31;;;13.53;44.45
6425;BME280;12193;42.642;23.384;2024-02-16T09:38:42;95037.38;;;14.60;42.89
6425;BME280;12193;42.642;23.384;2024-02-16T09:41:13;95045.13;;;14.42;42.41
6425;BME280;12193;42.642;23.384;2024-02-16T09:43:45;95050.38;;;14.97;41.24
6425;BME280;12193;42.642;23.384;2024-02-16T09:46:15;95039.91;;;13.98;42.74
6425;BME280;12193;42.642;23.384;2024-02-16T09:48:46;95040.59;;;13.74;43.23
6425;BME280;12193;42.642;23.384;2024-02-16T09:51:18;95039.47;;;14.45;41.72
6425;BME280;12193;42.642;23.384;2024-02-16T09:53:50;95038.03;;;14.49;41.51
6425;BME280;12193;42.642;23.384;2024-02-16T09:56:21;95039.03;;;14.48;42.08
6425;BME280;12193;42.642;23.384;2024-02-16T09:58:53;95041.25;;;13.63;43.36
6425;BME280;12193;42.642;23.384;2024-02-16T10:01:24;95037.69;;;14.39;42.47
6425;BME280;12193;42.642;23.384;2024-02-16T10:03:54;95031.78;;;14.50;42.26
6425;BME280;12193;42.642;23.384;2024-02-16T10:06:24;95032.78;;;14.18;42.96
6425;BME280;12193;42.642;23.384;2024-02-16T10:08:54;95018.03;;;14.61;42.25
6425;BME280;12193;42.642;23.384;2024-02-16T10:11:25;95014.06;;;14.52;41.18
6425;BME280;12193;42.642;23.384;2024-02-16T10:13:58;95013.81;;;14.29;42.18
6425;BME280;12193;42.642;23.384;2024-02-16T10:16:29;95007.69;;;14.97;40.94
6425;BME280;12193;42.642;23.384;2024-02-16T10:19:04;95008.63;;;14.23;41.68
6425;BME280;12193;42.642;23.384;2024-02-16T10:21:34;95007.53;;;13.36;43.22
6425;BME280;12193;42.642;23.384;2024-02-16T10:24:05;95003.84;;;12.93;44.31
6425;BME280;12193;42.642;23.384;2024-02-16T10:26:36;94994.66;;;13.54;43.25
6425;BME280;12193;42.642;23.384;2024-02-16T10:29:09;94997.28;;;14.35;41.97
6425;BME280;12193;42.642;23.384;2024-02-16T10:31:40;94998.66;;;14.44;41.42
6425;BME280;12193;42.642;23.384;2024-02-16T10:34:09;94992.34;;;15.78;39.53
6425;BME280;12193;42.642;23.384;2024-02-16T10:36:39;94991.94;;;14.55;41.21
6425;BME280;12193;42.642;23.384;2024-02-16T10:39:08;94994.78;;;14.77;40.47
6425;BME280;12193;42.642;23.384;2024-02-16T10:41:38;94983.94;;;15.16;39.25
6425;BME280;12193;42.642;23.384;2024-02-16T10:44:11;94987.13;;;14.52;40.82
6425;BME280;12193;42.642;23.384;2024-02-16T10:46:40;94988.19;;;14.44;40.86
6425;BME280;12193;42.642;23.384;2024-02-16T10:49:10;94978.38;;;14.64;40.41
6425;BME280;12193;42.642;23.384;2024-02-16T10:51:44;94982.06;;;14.57;42.11
6425;BME280;12193;42.642;23.384;2024-02-16T10:54:15;94986.22;;;14.33;41.59
6425;BME280;12193;42.642;23.384;2024-02-16T10:56:47;94978.78;;;14.61;40.53
6425;BME280;12193;42.642;23.384;2024-02-16T10:59:19;94966.03;;;14.89;40.11
6425;BME280;12193;42.642;23.384;2024-02-16T11:01:59;94976.41;;;15.02;39.55
6425;BME280;12193;42.642;23.384;2024-02-16T11:04:36;94968.63;;;15.38;38.68
6425;BME280;12193;42.642;23.384;2024-02-16T11:07:11;94966.22;;;15.12;39.73
6425;BME280;12193;42.642;23.384;2024-02-16T11:09:40;94968.22;;;13.31;42.43
6425;BME280;12193;42.642;23.384;2024-02-16T11:12:12;94964.13;;;14.29;41.26
6425;BME280;12193;42.642;23.384;2024-02-16T11:14:45;94963.44;;;14.16;41.77
6425;BME280;12193;42.642;23.384;2024-02-16T11:17:20;94960.56;;;14.48;41.55
6425;BME280;12193;42.642;23.384;2024-02-16T11:19:50;94955.34;;;14.72;40.95
6425;BME280;12193;42.642;23.384;2024-02-16T11:22:20;94955.13;;;14.19;41.75
6425;BME280;12193;42.642;23.384;2024-02-16T11:24:51;94955.06;;;14.32;41.18
6425;BME280;12193;42.642;23.384;2024-02-16T11:27:22;94954.78;;;14.15;42.62
6425;BME280;12193;42.642;23.384;2024-02-16T11:29:54;94953.00;;;14.03;42.34
6425;BME280;12193;42.642;23.384;2024-02-16T11:32:26;94950.97;;;14.42;41.52
6425;BME280;12193;42.642;23.384;2024-02-16T11:34:55;94947.09;;;14.20;41.46
6425;BME280;12193;42.642;23.384;2024-02-16T11:37:24;94945.19;;;13.96;41.93
6425;BME280;12193;42.642;23.384;2024-02-16T11:39:55;94946.34;;;13.19;43.62
6425;BME280;12193;42.642;23.384;2024-02-16T11:42:24;94943.53;;;13.71;42.89
6425;BME280;12193;42.642;23.384;2024-02-16T11:44:56;94929.00;;;14.67;41.50
6425;BME280;12193;42.642;23.384;2024-02-16T11:47:25;94933.34;;;14.98;40.43
6425;BME280;12193;42.642;23.384;2024-02-16T11:50:05;94937.59;;;15.17;39.46
6425;BME280;12193;42.642;23.384;2024-02-16T11:52:38;94939.59;;;14.55;40.04
6425;BME280;12193;42.642;23.384;2024-02-16T11:55:08;94933.78;;;14.53;40.65
6425;BME280;12193;42.642;23.384;2024-02-16T11:57:38;94940.66;;;13.42;42.15
6425;BME280;12193;42.642;23.384;2024-02-16T12:00:12;94934.19;;;12.55;44.50
6425;BME280;12193;42.642;23.384;2024-02-16T12:02:41;94923.84;;;13.18;44.02
6425;BME280;12193;42.642;23.384;2024-02-16T12:05:14;94929.72;;;12.88;44.40
6425;BME280;12193;42.642;23.384;2024-02-16T12:07:43;94932.13;;;13.65;42.81
6425;BME280;12193;42.642;23.384;2024-02-16T12:10:14;94922.09;;;13.56;43.11
6425;BME280;12193;42.642;23.384;2024-02-16T12:12:43;94926.47;;;13.68;42.75
6425;BME280;12193;42.642;23.384;2024-02-16T12:15:15;94923.97;;;13.80;42.17
6425;BME280;12193;42.642;23.384;2024-02-16T12:17:46;94915.31;;;14.23;41.97
6425;BME280;12193;42.642;23.384;2024-02-16T12:20:15;94916.72;;;13.51;42.93
6425;BME280;12193;42.642;23.384;2024-02-16T12:22:45;94917.31;;;13.53;43.53
6425;BME280;12193;42.642;23.384;2024-02-16T12:25:14;94906.84;;;13.90;43.22
6425;BME280;12193;42.642;23.384;2024-02-16T12:27:43;94907.94;;;13.76;43.23
6425;BME280;12193;42.642;23.384;2024-02-16T12:30:15;94906.50;;;14.11;42.94
6425;BME280;12193;42.642;23.384;2024-02-16T12:32:44;94906.00;;;13.59;43.38
6425;BME280;12193;42.642;23.384;2024-02-16T12:35:13;94899.88;;;12.71;45.55
6425;BME280;12193;42.642;23.384;2024-02-16T12:37:43;94904.34;;;12.32;47.14
6425;BME280;12193;42.642;23.384;2024-02-16T12:40:13;94905.91;;;11.87;48.44
6425;BME280;12193;42.642;23.384;2024-02-16T12:42:42;94905.72;;;11.89;48.54
6425;BME280;12193;42.642;23.384;2024-02-16T12:45:11;94899.53;;;12.29;47.22
6425;BME280;12193;42.642;23.384;2024-02-16T12:47:44;94895.69;;;12.44;47.12
6425;BME280;12193;42.642;23.384;2024-02-16T12:50:14;94896.13;;;12.02;48.70
6425;BME280;12193;42.642;23.384;2024-02-16T12:52:43;94890.16;;;11.48;50.47
6425;BME280;12193;42.642;23.384;2024-02-16T12:55:12;94893.25;;;11.65;50.78
6425;BME280;12193;42.642;23.384;2024-02-16T12:57:42;94888.50;;;12.20;49.21
6425;BME280;12193;42.642;23.384;2024-02-16T13:00:13;94902.28;;;11.75;49.68
6425;BME280;12193;42.642;23.384;2024-02-16T13:02:45;94888.25;;;11.70;49.95
6425;BME280;12193;42.642;23.384;2024-02-16T13:05:14;94889.28;;;12.14;49.38
6425;BME280;12193;42.642;23.384;2024-02-16T13:07:43;94892.28;;;11.85;50.85
6425;BME280;12193;42.642;23.384;2024-02-16T13:10:12;94894.91;;;12.05;49.63
6425;BME280;12193;42.642;23.384;2024-02-16T13:12:41;94889.31;;;12.01;49.63
6425;BME280;12193;42.642;23.384;2024-02-16T13:15:11;94884.47;;;12.24;49.89
6425;BME280;12193;42.642;23.384;2024-02-16T13:17:40;94884.69;;;12.16;49.64
6425;BME280;12193;42.642;23.384;2024-02-16T13:20:12;94880.06;;;12.25;49.26
6425;BME280;12193;42.642;23.384;2024-02-16T13:22:42;94880.06;;;12.50;48.73
6425;BME280;12193;42.642;23.384;2024-02-16T13:25:11;94879.81;;;12.58;48.70
6425;BME280;12193;42.642;23.384;2024-02-16T13:27:40;94883.09;;;12.41;48.82
6425;BME280;12193;42.642;23.384;2024-02-16T13:30:10;94880.25;;;12.62;48.76
6425;BME280;12193;42.642;23.384;2024-02-16T13:32:39;94881.69;;;12.26;49.50
6425;BME280;12193;42.642;23.384;2024-02-16T13:35:09;94886.69;;;12.01;50.93
6425;BME280;12193;42.642;23.384;2024-02-16T13:37:42;94877.06;;;12.28;50.70
6425;BME280;12193;42.642;23.384;2024-02-16T13:40:11;94876.88;;;12.42;49.35
6425;BME280;12193;42.642;23.384;2024-02-16T13:42:41;94871.66;;;12.23;50.21
6425;BME280;12193;42.642;23.384;2024-02-16T13:45:11;94885.91;;;12.20;50.76
6425;BME280;12193;42.642;23.384;2024-02-16T13:47:40;94877.47;;;12.25;50.36
6425;BME280;12193;42.642;23.384;2024-02-16T13:50:09;94876.84;;;12.03;50.65
6425;BME280;12193;42.642;23.384;2024-02-16T13:52:41;94888.88;;;11.98;51.17
6425;BME280;12193;42.642;23.384;2024-02-16T13:55:11;94888.78;;;11.46;52.57
6425;BME280;12193;42.642;23.384;2024-02-16T13:57:40;94880.38;;;11.50;52.87
6425;BME280;12193;42.642;23.384;2024-02-16T14:00:12;94890.44;;;11.73;52.03
6425;BME280;12193;42.642;23.384;2024-02-16T14:02:42;94877.47;;;12.18;50.61
6425;BME280;12193;42.642;23.384;2024-02-16T14:05:12;94879.28;;;11.92;51.05
6425;BME280;12193;42.642;23.384;2024-02-16T14:07:45;94888.69;;;12.06;51.30
6425;BME280;12193;42.642;23.384;2024-02-16T14:10:14;94886.69;;;12.14;51.41
6425;BME280;12193;42.642;23.384;2024-02-16T14:12:44;94876.06;;;12.16;51.88
6425;BME280;12193;42.642;23.384;2024-02-16T14:15:14;94880.28;;;12.10;52.29
6425;BME280;12193;42.642;23.384;2024-02-16T14:17:45;94885.47;;;12.17;52.37
6425;BME280;12193;42.642;23.384;2024-02-16T14:20:14;94876.47;;;12.13;51.87
6425;BME280;12193;42.642;23.384;2024-02-16T14:22:46;94885.88;;;12.33;52.05
6425;BME280;12193;42.642;23.384;2024-02-16T14:25:15;94883.88;;;12.09;51.58
6425;BME280;12193;42.642;23.384;2024-02-16T14:27:45;94885.50;;;11.91;52.28
6425;BME280;12193;42.642;23.384;2024-02-16T14:30:14;94881.25;;;11.70;53.04
6425;BME280;12193;42.642;23.384;2024-02-16T14:32:45;94881.75;;;11.53;53.51
6425;BME280;12193;42.642;23.384;2024-02-16T14:35:14;94878.13;;;11.41;54.03
6425;BME280;12193;42.642;23.384;2024-02-16T14:37:46;94883.75;;;11.44;54.70
6425;BME280;12193;42.642;23.384;2024-02-16T14:40:15;94885.63;;;11.63;54.00
6425;BME280;12193;42.642;23.384;2024-02-16T14:42:45;94881.66;;;11.87;53.46
6425;BME280;12193;42.642;23.384;2024-02-16T14:45:14;94883.47;;;11.86;53.60
6425;BME280;12193;42.642;23.384;2024-02-16T14:47:48;94883.44;;;11.73;53.41
6425;BME280;12193;42.642;23.384;2024-02-16T14:50:17;94883.66;;;11.85;53.71
6425;BME280;12193;42.642;23.384;2024-02-16T14:52:49;94898.25;;;11.73;53.49
6425;BME280;12193;42.642;23.384;2024-02-16T14:55:18;94897.25;;;11.67;54.11
6425;BME280;12193;42.642;23.384;2024-02-16T14:57:47;94902.84;;;11.58;54.22
6425;BME280;12193;42.642;23.384;2024-02-16T15:00:17;94897.22;;;11.54;54.70
6425;BME280;12193;42.642;23.384;2024-02-16T15:02:46;94893.78;;;11.47;54.98
6425;BME280;12193;42.642;23.384;2024-02-16T15:05:16;94897.38;;;11.53;54.70
6425;BME280;12193;42.642;23.384;2024-02-16T15:07:49;94895.59;;;11.47;54.74
6425;BME280;12193;42.642;23.384;2024-02-16T15:10:19;94903.75;;;11.31;55.67
6425;BME280;12193;42.642;23.384;2024-02-16T15:12:48;94903.53;;;11.26;56.61
6425;BME280;12193;42.642;23.384;2024-02-16T15:15:17;94908.53;;;11.28;57.25
6425;BME280;12193;42.642;23.384;2024-02-16T15:17:46;94916.91;;;11.17;57.03
6425;BME280;12193;42.642;23.384;2024-02-16T15:20:16;94910.88;;;11.16;57.31
6425;BME280;12193;42.642;23.384;2024-02-16T15:22:51;94908.41;;;11.02;58.33
6425;BME280;12193;42.642;23.384;2024-02-16T15:25:20;94914.03;;;11.05;57.96
6425;BME280;12193;42.642;23.384;2024-02-16T15:27:50;94916.06;;;11.10;57.96
6425;BME280;12193;42.642;23.384;2024-02-16T15:30:20;94920.66;;;11.08;58.13
6425;BME280;12193;42.642;23.384;2024-02-16T15:32:49;94923.72;;;10.84;58.75
6425;BME280;12193;42.642;23.384;2024-02-16T15:35:19;94923.63;;;10.64;60.62
6425;BME280;12193;42.642;23.384;2024-02-16T15:37:50;94924.94;;;10.54;61.89
6425;BME280;12193;42.642;23.384;2024-02-16T15:40:20;94923.19;;;10.61;62.36
6425;BME280;12193;42.642;23.384;2024-02-16T15:42:59;94931.59;;;10.63;63.23
6425;BME280;12193;42.642;23.384;2024-02-16T15:45:30;94930.94;;;10.54;64.55
6425;BME280;12193;42.642;23.384;2024-02-16T15:48:00;94943.19;;;10.33;66.41
6425;BME280;12193;42.642;23.384;2024-02-16T15:50:30;94932.63;;;10.14;67.62
6425;BME280;12193;42.642;23.384;2024-02-16T15:53:02;94939.41;;;9.94;69.72
6425;BME280;12193;42.642;23.384;2024-02-16T15:55:31;94945.53;;;9.86;70.66
6425;BME280;12193;42.642;23.384;2024-02-16T15:58:01;94944.28;;;9.82;71.30
6425;BME280;12193;42.642;23.384;2024-02-16T16:00:30;94943.25;;;9.98;70.80
6425;BME280;12193;42.642;23.384;2024-02-16T16:02:59;94947.06;;;9.81;71.10
6425;BME280;12193;42.642;23.384;2024-02-16T16:05:29;94943.44;;;9.75;72.21
6425;BME280;12193;42.642;23.384;2024-02-16T16:08:03;94938.94;;;9.48;73.97